createdAt,value
2019-06-15T00:01:17.627Z,18.50
2019-06-15T00:03:48.753Z,18.50
2019-06-15T00:06:19.656Z,18.40
2019-06-15T00:08:50.725Z,18.30
2019-06-15T00:11:21.616Z,18.20
2019-06-15T00:13:52.698Z,18.30
2019-06-15T00:16:23.616Z,18.20
2019-06-15T00:18:55.237Z,18.20
2019-06-15T00:21:25.863Z,18.20
2019-06-15T00:23:56.720Z,18.40
2019-06-15T00:26:28.120Z,18.40
2019-06-15T00:28:58.946Z,18.40
2019-06-15T00:31:30.904Z,18.70
2019-06-15T00:34:08.591Z,18.70
2019-06-15T01:03:04.541Z,18.50
2019-06-15T01:05:35.932Z,18.30
2019-06-15T01:08:06.540Z,18.10
2019-06-15T01:10:38.506Z,17.90
2019-06-15T01:13:09.438Z,17.90
2019-06-15T01:15:41.788Z,17.80
2019-06-15T01:18:12.742Z,17.70
2019-06-15T01:20:43.477Z,17.70
2019-06-15T01:23:14.838Z,17.60
2019-06-15T01:25:46.968Z,17.70
2019-06-15T01:28:18.438Z,18.10
2019-06-15T01:30:49.850Z,18.10
2019-06-15T01:33:20.830Z,17.90
2019-06-15T01:35:53.926Z,18.00
2019-06-15T01:38:25.554Z,17.90
2019-06-15T01:40:56.407Z,17.80
2019-06-15T01:43:27.741Z,17.80
2019-06-15T01:45:58.688Z,17.80
2019-06-15T01:48:30.067Z,17.80
2019-06-15T01:51:01.341Z,17.70
2019-06-15T01:53:32.840Z,17.60
2019-06-15T01:56:04.708Z,17.50
2019-06-15T01:58:36.003Z,17.40
2019-06-15T02:01:07.087Z,17.40
2019-06-15T02:03:38.795Z,17.30
2019-06-15T02:06:09.475Z,17.30
2019-06-15T02:08:40.426Z,17.20
2019-06-15T02:11:11.391Z,17.20
2019-06-15T02:13:44.320Z,17.30
2019-06-15T02:16:15.966Z,17.30
2019-06-15T02:18:46.842Z,17.20
2019-06-15T02:21:17.772Z,17.30
2019-06-15T02:23:49.539Z,17.50
2019-06-15T02:26:20.142Z,17.50
2019-06-15T02:28:51.667Z,17.60
2019-06-15T02:31:23.094Z,17.60
2019-06-15T02:33:54.033Z,17.80
2019-06-15T02:36:25.071Z,17.80
2019-06-15T02:38:56.304Z,17.90
2019-06-15T02:41:27.255Z,17.90
2019-06-15T02:43:58.688Z,17.90
2019-06-15T02:46:29.978Z,17.80
2019-06-15T02:49:01.148Z,17.70
2019-06-15T02:51:32.745Z,17.80
2019-06-15T02:54:03.361Z,18.30
2019-06-15T02:56:35.171Z,18.60
2019-06-15T02:59:05.747Z,18.70
2019-06-15T03:01:36.999Z,18.80
2019-06-15T03:04:07.570Z,18.70
2019-06-15T03:06:39.236Z,18.60
2019-06-15T03:09:10.285Z,18.50
2019-06-15T03:11:42.060Z,18.40
2019-06-15T03:14:12.959Z,18.40
2019-06-15T03:16:43.907Z,18.30
2019-06-15T03:19:15.210Z,18.20
2019-06-15T03:21:45.543Z,18.10
2019-06-15T03:24:17.015Z,18.20
2019-06-15T03:26:48.325Z,18.20
2019-06-15T03:29:19.664Z,18.20
2019-06-15T03:31:51.688Z,18.00
2019-06-15T03:34:23.005Z,17.90
2019-06-15T03:36:55.447Z,17.80
2019-06-15T03:39:26.521Z,17.70
2019-06-15T03:41:57.525Z,17.60
2019-06-15T03:44:28.345Z,17.60
2019-06-15T03:46:59.582Z,17.50
2019-06-15T03:49:30.558Z,17.50
2019-06-15T03:52:01.036Z,17.50
2019-06-15T03:54:31.626Z,17.50
2019-06-15T03:57:02.805Z,17.40
2019-06-15T03:59:34.037Z,17.40
2019-06-15T04:02:05.389Z,17.40
2019-06-15T04:04:36.680Z,17.30
2019-06-15T04:07:07.630Z,17.20
2019-06-15T04:09:39.091Z,17.20
2019-06-15T04:12:10.529Z,17.20
2019-06-15T04:14:42.119Z,17.20
2019-06-15T04:17:13.673Z,17.20
2019-06-15T04:19:44.621Z,17.20
2019-06-15T04:22:17.178Z,17.20
2019-06-15T04:24:48.768Z,17.20
2019-06-15T04:27:20.282Z,17.30
2019-06-15T04:29:51.527Z,17.40
2019-06-15T04:32:22.444Z,17.40
2019-06-15T04:34:53.336Z,17.50
2019-06-15T04:37:24.860Z,17.60
2019-06-15T04:39:56.153Z,17.70
2019-06-15T04:42:27.114Z,17.80
2019-06-15T04:44:58.064Z,17.90
2019-06-15T04:47:29.241Z,18.00
2019-06-15T04:50:00.721Z,17.90
2019-06-15T04:52:32.006Z,17.80
2019-06-15T04:55:03.493Z,17.70
2019-06-15T04:57:34.126Z,17.70
2019-06-15T05:00:05.834Z,17.60
2019-06-15T05:02:37.212Z,17.60
2019-06-15T05:05:10.089Z,17.60
2019-06-15T05:07:41.419Z,17.60
2019-06-15T05:10:14.090Z,17.60
2019-06-15T05:12:45.280Z,17.60
2019-06-15T05:15:16.286Z,17.60
2019-06-15T05:17:47.746Z,17.90
2019-06-15T05:20:18.826Z,18.30
2019-06-15T05:22:50.639Z,18.50
2019-06-15T05:25:21.776Z,18.90
2019-06-15T05:27:52.750Z,18.90
2019-06-15T05:30:24.250Z,19.00
2019-06-15T05:32:55.537Z,19.00
2019-06-15T05:35:26.483Z,19.00
2019-06-15T05:37:58.413Z,19.40
2019-06-15T05:40:28.699Z,19.50
2019-06-15T05:42:59.300Z,19.10
2019-06-15T05:45:29.850Z,18.80
2019-06-15T05:48:00.988Z,18.50
2019-06-15T05:50:31.875Z,18.60
2019-06-15T05:53:03.527Z,18.50
2019-06-15T05:55:34.174Z,18.40
2019-06-15T05:58:04.879Z,18.40
2019-06-15T06:00:36.149Z,18.20
2019-06-15T06:03:07.099Z,18.50
2019-06-15T06:05:38.022Z,19.40
2019-06-15T06:08:08.762Z,20.00
2019-06-15T06:10:39.070Z,20.70
2019-06-15T06:13:10.322Z,20.30
2019-06-15T06:15:41.490Z,20.60
2019-06-15T06:18:12.417Z,21.10
2019-06-15T06:20:43.830Z,22.20
2019-06-15T06:23:15.511Z,22.40
2019-06-15T06:25:46.528Z,22.70
2019-06-15T06:28:17.492Z,22.10
2019-06-15T06:30:48.336Z,22.40
2019-06-15T06:33:19.695Z,22.50
2019-06-15T06:35:50.324Z,21.50
2019-06-15T06:38:22.025Z,21.30
2019-06-15T06:40:53.287Z,21.80
2019-06-15T06:43:24.977Z,22.20
2019-06-15T06:45:55.924Z,22.60
2019-06-15T06:48:26.979Z,22.10
2019-06-15T06:50:57.887Z,22.30
2019-06-15T06:53:29.228Z,22.70
2019-06-15T06:56:00.308Z,23.30
2019-06-15T06:58:31.650Z,23.70
2019-06-15T07:01:02.927Z,22.90
2019-06-15T07:03:34.182Z,23.10
2019-06-15T07:06:04.849Z,23.50
2019-06-15T07:08:35.812Z,23.50
2019-06-15T07:11:06.746Z,23.60
2019-06-15T07:13:37.980Z,23.40
2019-06-15T07:16:08.643Z,22.80
2019-06-15T07:18:39.534Z,22.90
2019-06-15T07:21:10.485Z,22.60
2019-06-15T07:23:41.081Z,22.20
2019-06-15T07:26:12.357Z,22.10
2019-06-15T07:28:44.285Z,22.50
2019-06-15T07:31:15.354Z,22.60
2019-06-15T07:33:46.685Z,22.90
2019-06-15T07:36:18.105Z,22.60
2019-06-15T07:38:49.638Z,22.40
2019-06-15T07:41:20.854Z,22.60
2019-06-15T07:43:52.076Z,22.80
2019-06-15T07:46:23.366Z,22.90
2019-06-15T07:48:54.590Z,22.70
2019-06-15T07:51:25.905Z,22.90
2019-06-15T07:53:57.038Z,22.80
2019-06-15T07:56:27.733Z,22.50
2019-06-15T07:58:59.576Z,22.70
2019-06-15T08:01:30.680Z,22.30
2019-06-15T08:04:01.357Z,22.00
2019-06-15T08:06:32.797Z,21.90
2019-06-15T08:09:03.429Z,22.10
2019-06-15T08:11:34.981Z,22.00
2019-06-15T08:14:05.928Z,22.50
2019-06-15T08:16:36.932Z,22.50
2019-06-15T08:19:07.928Z,22.70
2019-06-15T08:21:39.207Z,22.90
2019-06-15T08:24:10.186Z,22.90
2019-06-15T08:26:41.252Z,22.40
2019-06-15T08:29:12.471Z,22.90
2019-06-15T08:31:43.671Z,23.30
2019-06-15T08:34:14.353Z,23.70
2019-06-15T08:36:45.021Z,23.10
2019-06-15T08:39:16.025Z,22.50
2019-06-15T08:41:46.335Z,22.40
2019-06-15T08:44:17.796Z,21.70
2019-06-15T08:46:49.270Z,21.40
2019-06-15T08:49:20.226Z,21.30
2019-06-15T08:51:51.428Z,21.20
2019-06-15T08:54:22.737Z,21.30
2019-06-15T08:56:53.950Z,21.40
2019-06-15T08:59:25.075Z,21.60
2019-06-15T09:01:55.961Z,22.10
2019-06-15T09:04:27.246Z,21.50
2019-06-15T09:06:58.192Z,21.40
2019-06-15T09:09:29.953Z,21.50
2019-06-15T09:12:00.866Z,21.40
2019-06-15T09:14:31.504Z,21.90
2019-06-15T09:17:02.499Z,22.20
2019-06-15T09:19:33.564Z,21.90
2019-06-15T09:22:04.164Z,21.90
2019-06-15T09:24:35.471Z,22.50
2019-06-15T09:27:06.421Z,22.50
2019-06-15T09:29:38.699Z,22.50
2019-06-15T09:32:09.540Z,22.60
2019-06-15T09:34:42.955Z,22.90
2019-06-15T09:37:13.876Z,23.10
2019-06-15T09:39:45.510Z,23.30
2019-06-15T09:42:16.078Z,23.40
2019-06-15T09:44:47.656Z,23.20
2019-06-15T09:47:18.527Z,23.40
2019-06-15T09:49:49.585Z,22.90
2019-06-15T09:52:20.225Z,23.20
2019-06-15T09:54:51.574Z,23.50
2019-06-15T09:57:22.852Z,23.70
2019-06-15T09:59:55.029Z,23.10
2019-06-15T10:02:26.566Z,23.30
2019-06-15T10:04:57.555Z,23.30
2019-06-15T10:07:28.707Z,23.70
2019-06-15T10:09:59.959Z,23.60
2019-06-15T10:12:30.978Z,23.80
2019-06-15T10:15:02.316Z,23.50
2019-06-15T10:17:33.189Z,23.80
2019-06-15T10:20:05.601Z,23.30
2019-06-15T10:22:36.762Z,23.60
2019-06-15T10:25:09.054Z,23.50
2019-06-15T10:27:40.136Z,23.70
2019-06-15T10:30:12.384Z,24.10
2019-06-15T10:32:44.011Z,24.90
2019-06-15T10:35:16.013Z,25.10
2019-06-15T10:37:46.856Z,25.50
2019-06-15T10:40:18.658Z,25.80
2019-06-15T10:42:49.896Z,24.80
2019-06-15T10:45:20.567Z,24.80
2019-06-15T10:47:51.123Z,24.60
2019-06-15T10:50:21.823Z,24.80
2019-06-15T10:52:52.721Z,24.50
2019-06-15T10:55:23.854Z,24.00
2019-06-15T10:57:55.092Z,23.80
2019-06-15T11:00:27.460Z,23.50
2019-06-15T11:02:58.789Z,23.50
2019-06-15T11:05:29.513Z,23.70
2019-06-15T11:08:00.277Z,24.30
2019-06-15T11:10:54.132Z,23.80
2019-06-15T11:13:24.763Z,23.80
2019-06-15T11:15:56.001Z,24.30
2019-06-15T11:18:28.075Z,24.90
2019-06-15T11:20:59.947Z,24.60
2019-06-15T11:23:31.188Z,24.30
2019-06-15T11:26:02.536Z,25.00
2019-06-15T11:28:33.207Z,25.10
2019-06-15T11:31:03.832Z,24.70
2019-06-15T11:33:35.146Z,24.80
2019-06-15T11:36:06.159Z,24.80
2019-06-15T11:38:37.316Z,24.80
2019-06-15T11:41:08.021Z,25.40
2019-06-15T11:43:38.671Z,25.70
2019-06-15T11:46:10.595Z,25.90
2019-06-15T11:48:41.250Z,26.30
2019-06-15T11:51:12.853Z,26.60
2019-06-15T11:53:44.154Z,26.80
2019-06-15T11:56:15.139Z,28.00
2019-06-15T11:58:46.445Z,27.90
2019-06-15T12:01:19.007Z,27.40
2019-06-15T12:03:50.644Z,27.10
2019-06-15T12:06:21.519Z,27.30
2019-06-15T12:08:53.186Z,27.80
2019-06-15T12:11:24.112Z,28.80
2019-06-15T12:13:54.949Z,27.70
2019-06-15T12:16:25.644Z,27.30
2019-06-15T12:18:56.654Z,27.70
2019-06-15T12:21:28.284Z,27.70
2019-06-15T12:23:59.301Z,28.00
2019-06-15T12:26:30.611Z,29.40
2019-06-15T12:29:01.790Z,29.50
2019-06-15T12:31:37.373Z,30.30
2019-06-15T12:34:08.292Z,29.70
2019-06-15T12:36:39.659Z,29.20
2019-06-15T12:39:10.271Z,29.60
2019-06-15T12:41:42.060Z,29.30
2019-06-15T12:44:13.271Z,28.30
2019-06-15T12:46:44.012Z,27.90
2019-06-15T12:49:15.329Z,27.80
2019-06-15T12:51:47.171Z,27.90
2019-06-15T12:54:18.643Z,27.30
2019-06-15T12:56:50.003Z,27.40
2019-06-15T12:59:20.866Z,27.70
2019-06-15T13:01:52.455Z,29.20
2019-06-15T13:04:23.635Z,29.20
2019-06-15T13:06:55.158Z,29.70
2019-06-15T13:09:26.367Z,29.90
2019-06-15T13:11:57.979Z,30.50
2019-06-15T13:14:28.874Z,30.40
2019-06-15T13:17:02.551Z,29.20
2019-06-15T13:19:33.981Z,30.00
2019-06-15T13:22:06.425Z,30.50
2019-06-15T13:24:37.295Z,30.60
2019-06-15T13:27:08.248Z,31.30
2019-06-15T13:29:39.309Z,33.00
2019-06-15T13:32:10.709Z,33.60
2019-06-15T13:34:42.679Z,33.50
2019-06-15T13:37:14.057Z,34.00
2019-06-15T13:39:45.059Z,33.10
2019-06-15T13:42:16.573Z,34.10
2019-06-15T13:44:47.904Z,33.60
2019-06-15T13:47:28.892Z,32.80
2019-06-15T13:49:59.828Z,33.50
2019-06-15T13:52:32.167Z,34.10
2019-06-15T13:55:03.829Z,33.20
2019-06-15T13:57:35.192Z,32.70
2019-06-15T14:00:07.427Z,32.40
2019-06-15T14:02:39.505Z,31.90
2019-06-15T14:05:10.918Z,33.60
2019-06-15T14:07:42.198Z,33.00
2019-06-15T14:10:13.701Z,30.80
2019-06-15T14:12:44.654Z,29.70
2019-06-15T14:15:16.574Z,29.50
2019-06-15T14:17:47.624Z,29.20
2019-06-15T14:20:19.217Z,30.70
2019-06-15T14:22:50.864Z,30.90
2019-06-15T14:25:21.560Z,30.70
2019-06-15T14:27:53.409Z,31.70
2019-06-15T14:30:24.143Z,32.20
2019-06-15T14:32:56.008Z,31.80
2019-06-15T14:35:27.518Z,32.70
2019-06-15T14:37:59.084Z,33.80
2019-06-15T14:40:30.419Z,34.30
2019-06-15T14:43:01.128Z,33.60
2019-06-15T14:45:32.090Z,33.10
2019-06-15T14:48:03.554Z,33.90
2019-06-15T14:50:34.503Z,33.80
2019-06-15T14:53:06.014Z,32.50
2019-06-15T14:55:36.757Z,32.40
2019-06-15T14:58:07.941Z,33.30
2019-06-15T15:00:38.686Z,33.20
2019-06-15T15:03:09.402Z,32.60
2019-06-15T15:05:40.778Z,33.10
2019-06-15T15:08:11.989Z,32.00
2019-06-15T15:10:43.359Z,31.40
2019-06-15T15:13:14.406Z,31.80
2019-06-15T15:15:46.790Z,31.80
2019-06-15T15:18:18.265Z,32.00
2019-06-15T15:20:49.269Z,31.20
2019-06-15T15:23:20.298Z,30.40
2019-06-15T15:25:51.761Z,31.30
2019-06-15T15:28:23.128Z,32.40
2019-06-15T15:30:54.568Z,33.10
2019-06-15T15:33:26.165Z,34.30
2019-06-15T15:35:57.782Z,33.90
2019-06-15T15:38:28.798Z,33.90
2019-06-15T15:40:59.729Z,34.30
2019-06-15T15:43:31.457Z,33.50
2019-06-15T15:46:03.045Z,32.50
2019-06-15T15:48:33.390Z,30.80
2019-06-15T15:51:06.484Z,29.80
2019-06-15T15:53:37.508Z,29.80
2019-06-15T15:56:07.971Z,30.00
2019-06-15T15:58:39.193Z,29.90
2019-06-15T16:01:11.335Z,30.00
2019-06-15T16:03:42.303Z,29.50
2019-06-15T16:06:13.291Z,29.00
2019-06-15T16:08:46.990Z,28.30
2019-06-15T16:11:16.916Z,27.50
2019-06-15T16:13:48.110Z,27.00
2019-06-15T16:16:19.317Z,26.40
2019-06-15T16:18:50.847Z,25.60
2019-06-15T16:21:22.109Z,25.10
2019-06-15T16:23:57.585Z,25.00
2019-06-15T16:26:27.431Z,25.10
2019-06-15T16:28:58.740Z,25.20
2019-06-15T16:31:29.757Z,25.30
2019-06-15T16:34:01.149Z,25.00
2019-06-15T16:36:31.835Z,25.10
2019-06-15T16:39:03.205Z,24.60
2019-06-15T16:41:36.256Z,24.40
2019-06-15T16:44:07.386Z,24.40
2019-06-15T16:46:38.631Z,24.20
2019-06-15T16:49:09.316Z,24.40
2019-06-15T16:51:40.274Z,25.20
2019-06-15T16:54:11.589Z,25.90
2019-06-15T16:56:43.063Z,25.40
2019-06-15T16:59:14.275Z,25.00
2019-06-15T17:01:45.224Z,24.60
2019-06-15T17:04:17.014Z,24.20
2019-06-15T17:06:48.280Z,23.90
2019-06-15T17:09:19.588Z,23.80
2019-06-15T17:11:50.202Z,23.70
2019-06-15T17:14:21.777Z,23.50
2019-06-15T17:16:53.417Z,23.40
2019-06-15T17:19:26.932Z,23.30
2019-06-15T17:22:13.771Z,23.20
2019-06-15T17:24:30.717Z,23.10
2019-06-15T17:27:01.989Z,23.00
2019-06-15T17:29:33.527Z,23.00
2019-06-15T17:32:06.220Z,23.00
2019-06-15T17:34:37.278Z,22.90
2019-06-15T17:37:08.679Z,22.80
2019-06-15T17:39:40.567Z,22.60
2019-06-15T17:42:11.978Z,22.60
2019-06-15T17:44:43.057Z,22.40
2019-06-15T17:47:16.766Z,22.40
2019-06-15T17:49:47.314Z,22.30
2019-06-15T17:52:18.888Z,22.20
2019-06-15T17:54:49.900Z,22.10
2019-06-15T17:57:20.841Z,22.00
2019-06-15T17:59:51.461Z,21.90
2019-06-15T18:02:22.753Z,21.90
2019-06-15T18:04:53.742Z,21.80
2019-06-15T18:07:26.206Z,21.80
2019-06-15T18:09:57.376Z,21.80
2019-06-15T18:12:27.928Z,21.80
2019-06-15T18:14:59.128Z,21.70
2019-06-15T18:17:30.371Z,21.70
2019-06-15T18:20:01.594Z,21.70
2019-06-15T18:22:33.233Z,21.80
2019-06-15T18:25:06.486Z,21.80
2019-06-15T18:27:37.491Z,21.70
2019-06-15T18:30:08.264Z,21.70
2019-06-15T18:32:39.482Z,21.60
2019-06-15T18:35:10.132Z,21.60
2019-06-15T18:37:41.368Z,21.50
2019-06-15T18:40:12.517Z,21.30
2019-06-15T18:42:46.346Z,21.20
2019-06-15T18:45:16.839Z,21.00
2019-06-15T18:47:48.389Z,20.90
2019-06-15T18:50:34.149Z,20.70
2019-06-15T18:53:07.195Z,20.60
2019-06-15T18:55:38.638Z,20.50
2019-06-15T18:58:09.374Z,20.50
2019-06-15T19:00:40.293Z,20.20
2019-06-15T19:03:11.799Z,17.90
2019-06-15T19:05:42.380Z,16.00
2019-06-15T19:08:13.609Z,14.80
2019-06-15T19:10:46.589Z,14.60
2019-06-15T19:13:16.979Z,14.30
2019-06-15T19:15:48.336Z,13.40
2019-06-15T19:18:18.979Z,13.10
2019-06-15T19:20:50.802Z,13.40
2019-06-15T19:23:22.529Z,13.60
2019-06-15T19:25:53.694Z,13.80
2019-06-15T19:28:26.737Z,13.80
2019-06-15T19:30:59.028Z,13.80
2019-06-15T19:33:29.982Z,13.80
2019-06-15T19:36:01.251Z,13.80
2019-06-15T19:38:32.639Z,13.90
2019-06-15T19:41:03.498Z,14.00
2019-06-15T19:43:36.309Z,13.90
2019-06-15T19:46:07.053Z,14.00
2019-06-15T19:48:38.807Z,14.00
2019-06-15T19:51:10.310Z,14.00
2019-06-15T19:53:42.087Z,14.00
2019-06-15T19:56:13.187Z,13.90
2019-06-15T19:58:46.129Z,13.90
2019-06-15T20:01:16.932Z,14.00
2019-06-15T20:03:48.191Z,13.90
2019-06-15T20:06:19.429Z,13.90
2019-06-15T20:08:50.713Z,13.90
2019-06-15T20:11:21.639Z,13.80
2019-06-15T20:13:53.368Z,13.90
2019-06-15T20:16:24.989Z,14.00
2019-06-15T20:18:56.380Z,14.00
2019-06-15T20:21:27.707Z,14.10
2019-06-15T20:23:59.214Z,14.00
2019-06-15T20:26:30.627Z,14.00
2019-06-15T20:29:02.133Z,14.00
2019-06-15T20:31:33.421Z,14.00
2019-06-15T20:34:04.377Z,14.10
2019-06-15T20:36:36.690Z,14.00
2019-06-15T20:39:08.979Z,14.10
2019-06-15T20:41:40.253Z,14.10
2019-06-15T20:44:11.902Z,14.00
2019-06-15T20:46:42.853Z,14.10
2019-06-15T20:49:14.096Z,14.10
2019-06-15T20:51:46.286Z,14.10
2019-06-15T20:54:17.570Z,14.10
2019-06-15T20:56:48.831Z,14.10
2019-06-15T20:59:20.214Z,14.10
2019-06-15T21:01:51.549Z,14.10
2019-06-15T21:04:22.550Z,14.00
2019-06-15T21:06:53.543Z,14.00
2019-06-15T21:09:27.600Z,14.10
2019-06-15T21:11:58.271Z,14.20
2019-06-15T21:14:29.150Z,14.20
2019-06-15T21:17:00.831Z,14.20
2019-06-15T21:19:31.806Z,14.10
2019-06-15T21:22:02.873Z,14.00
2019-06-15T21:24:33.844Z,14.10
2019-06-15T21:27:06.228Z,14.10
2019-06-15T21:29:37.218Z,14.00
2019-06-15T21:32:08.463Z,14.00
2019-06-15T21:34:39.343Z,14.00
2019-06-15T21:37:10.470Z,14.00
2019-06-15T21:39:41.507Z,14.10
2019-06-15T21:42:12.752Z,14.10
2019-06-15T21:44:46.782Z,14.00
2019-06-15T21:47:16.948Z,14.00
2019-06-15T21:49:48.594Z,14.10
2019-06-15T21:52:19.547Z,14.10
2019-06-15T21:54:51.272Z,14.10
2019-06-15T21:57:22.366Z,14.10
2019-06-15T21:59:53.676Z,14.20
2019-06-15T22:02:26.633Z,14.10
2019-06-15T22:04:57.440Z,14.10
2019-06-15T22:07:28.703Z,14.00
2019-06-15T22:10:00.290Z,14.00
2019-06-15T22:12:31.282Z,14.00
2019-06-15T22:15:02.203Z,14.00
2019-06-15T22:18:10.105Z,13.90
2019-06-15T22:20:41.644Z,13.90
2019-06-15T22:23:13.424Z,14.00
2019-06-15T22:25:46.428Z,14.00
2019-06-15T22:28:17.527Z,14.00
2019-06-15T22:30:48.631Z,14.00
2019-06-15T22:33:19.946Z,14.00
2019-06-15T22:35:51.157Z,14.00
2019-06-15T22:38:22.105Z,14.00
2019-06-15T22:40:53.372Z,14.10
2019-06-15T22:43:24.385Z,14.10
2019-06-15T22:45:56.126Z,14.00
2019-06-15T22:48:27.294Z,14.10
2019-06-15T22:50:59.297Z,14.10
2019-06-15T22:53:31.018Z,14.10
2019-06-15T22:56:01.626Z,14.10
2019-06-15T22:58:32.905Z,14.10
2019-06-15T23:01:05.885Z,14.00
2019-06-15T23:03:36.316Z,14.00
2019-06-15T23:06:07.976Z,14.00
2019-06-15T23:08:39.306Z,14.00
2019-06-15T23:11:10.245Z,14.00
2019-06-15T23:13:40.933Z,14.00
2019-06-15T23:16:11.941Z,14.00
2019-06-15T23:18:43.003Z,14.00
2019-06-15T23:21:13.665Z,14.00
2019-06-15T23:23:46.863Z,14.00
2019-06-15T23:26:17.011Z,14.00
2019-06-15T23:28:48.649Z,13.90
2019-06-15T23:31:19.918Z,13.90
2019-06-15T23:33:51.673Z,14.00
2019-06-15T23:36:27.626Z,14.00
2019-06-15T23:38:58.662Z,13.90
2019-06-15T23:41:29.615Z,13.90
2019-06-15T23:44:00.620Z,13.90
2019-06-15T23:46:32.314Z,13.90
2019-06-15T23:49:03.289Z,13.90
2019-06-15T23:51:37.029Z,14.00
2019-06-15T23:54:08.580Z,13.90
2019-06-15T23:56:39.519Z,14.00
2019-06-15T23:59:10.569Z,14.00
